Time;durP1;ratioP1;P1;durP2;ratioP2;P2;SDS_P1;SDS_P2;PMS_P1;PMS_P2;Temp;Humidity;BMP_temperature;BMP_pressure;BME280_temperature;BME280_humidity;BME280_pressure;Samples;Min_cycle;Max_cycle;Signal;HPM_P1;HPM_P2
2023/09/16 00:00:33;;;;;;;2.58;1.80;;;;;;;26.40;52.22;98767.03;4974693;28;20034;-73
2023/09/16 00:03:03;;;;;;;3.47;1.95;;;;;;;26.41;52.05;98774.06;4988618;28;20034;-73
2023/09/16 00:05:29;;;;;;;5.10;2.03;;;;;;;26.39;51.97;98770.69;5004957;28;20391;-74
2023/09/16 00:07:57;;;;;;;2.95;1.75;;;;;;;26.40;51.80;98767.88;5013627;28;20037;-73
2023/09/16 00:10:23;;;;;;;4.35;1.75;;;;;;;26.40;52.06;98767.03;5013518;28;20026;-73
2023/09/16 00:12:49;;;;;;;3.67;1.75;;;;;;;26.39;51.90;98760.84;5013316;28;20486;-74
2023/09/16 00:15:14;;;;;;;3.28;1.98;;;;;;;26.42;52.13;98769.56;5013541;28;20022;-73
2023/09/16 00:17:40;;;;;;;3.47;1.83;;;;;;;26.39;51.63;98755.47;4979716;28;20038;-73
2023/09/16 00:20:14;;;;;;;3.60;1.70;;;;;;;26.39;51.68;98754.66;4989331;28;20045;-74
2023/09/16 00:22:41;;;;;;;3.00;1.60;;;;;;;26.36;52.07;98755.78;4993806;28;20022;-74
2023/09/16 00:25:08;;;;;;;2.70;1.73;;;;;;;26.37;51.88;98745.91;4993365;28;20034;-73
2023/09/16 00:27:34;;;;;;;2.92;1.63;;;;;;;26.35;51.63;98737.22;4993184;28;20395;-74
2023/09/16 00:29:59;;;;;;;2.60;1.60;;;;;;;26.36;51.80;98750.44;4993426;28;20037;-73
2023/09/16 00:32:27;;;;;;;3.03;1.60;;;;;;;26.33;51.65;98744.53;4993436;28;20109;-73
2023/09/16 00:34:53;;;;;;;3.50;1.92;;;;;;;26.36;51.68;98749.59;4980487;28;20033;-73
2023/09/16 00:37:19;;;;;;;3.05;1.77;;;;;;;26.39;51.85;98738.59;4993478;28;20014;-73
2023/09/16 00:39:44;;;;;;;3.22;1.80;;;;;;;26.38;51.83;98742.25;4992991;28;20062;-73
2023/09/16 00:42:10;;;;;;;4.10;2.00;;;;;;;26.37;51.86;98735.22;4992993;28;20050;-74
2023/09/16 00:44:36;;;;;;;3.17;1.80;;;;;;;26.37;51.83;98735.22;4993247;28;20394;-73
2023/09/16 00:47:02;;;;;;;3.47;1.60;;;;;;;26.33;51.96;98734.69;4993367;28;20109;-74
2023/09/16 00:49:30;;;;;;;4.05;1.83;;;;;;;26.29;51.57;98722.56;4993372;28;20500;-72
2023/09/16 00:51:57;;;;;;;3.47;1.83;;;;;;;26.29;52.06;98727.91;4993345;28;20018;-73
2023/09/16 00:54:23;;;;;;;2.53;1.80;;;;;;;26.27;52.04;98720.06;4992751;28;20562;-73
2023/09/16 00:56:48;;;;;;;2.42;1.40;;;;;;;26.29;52.00;98721.75;4993109;28;20023;-73
2023/09/16 00:59:16;;;;;;;3.30;1.88;;;;;;;26.27;51.66;98714.72;4993131;28;20034;-72
2023/09/16 01:01:44;;;;;;;2.58;1.58;;;;;;;26.27;52.14;98719.22;4992793;28;20022;-73
2023/09/16 01:04:10;;;;;;;3.03;1.70;;;;;;;26.26;51.63;98723.72;4992230;28;20451;-73
2023/09/16 01:06:36;;;;;;;3.30;1.75;;;;;;;26.26;52.14;98726.38;5012592;28;20026;-73
2023/09/16 01:09:02;;;;;;;3.53;2.05;;;;;;;26.23;52.09;98716.00;5008569;28;20395;-73
2023/09/16 01:11:27;;;;;;;3.00;1.73;;;;;;;26.23;51.90;98718.66;4988463;28;20037;-73
2023/09/16 01:13:53;;;;;;;3.05;1.80;;;;;;;26.21;52.33;98709.94;4973666;28;20023;-73
2023/09/16 01:16:21;;;;;;;2.50;1.63;;;;;;;26.21;52.11;98712.59;4973317;28;20033;-73
2023/09/16 01:18:56;;;;;;;3.42;1.90;;;;;;;26.19;52.03;98719.09;4973755;28;20032;-74
2023/09/16 01:21:22;;;;;;;3.33;1.73;;;;;;;26.18;52.49;98718.22;4991653;28;20457;-73
2023/09/16 01:23:48;;;;;;;3.00;1.60;;;;;;;26.18;52.12;98709.34;4992426;28;20061;-73
2023/09/16 01:26:13;;;;;;;3.05;1.75;;;;;;;26.17;52.38;98718.38;4992904;28;20040;-73
2023/09/16 01:28:39;;;;;;;2.92;1.65;;;;;;;26.17;52.43;98719.22;4992767;28;20399;-73
2023/09/16 01:31:06;;;;;;;3.78;1.80;;;;;;;26.17;52.10;98710.34;4991570;28;20520;-73
2023/09/16 01:33:45;;;;;;;3.22;1.70;;;;;;;26.17;52.45;98705.84;4992611;28;20030;-73
2023/09/16 01:36:18;;;;;;;3.88;1.80;;;;;;;26.15;52.13;98705.16;4992804;28;20553;-74
2023/09/16 01:38:45;;;;;;;3.25;1.73;;;;;;;26.18;52.31;98699.50;4992418;28;20057;-73
2023/09/16 01:41:12;;;;;;;2.63;1.90;;;;;;;26.17;52.49;98700.50;4992979;28;20050;-74
2023/09/16 01:43:38;;;;;;;2.92;1.50;;;;;;;26.15;52.31;98699.81;4996819;28;20034;-73
2023/09/16 01:46:03;;;;;;;2.72;1.45;;;;;;;26.13;52.50;98691.09;4996698;28;20053;-73
2023/09/16 01:48:29;;;;;;;2.97;1.67;;;;;;;26.14;52.25;98695.44;4977950;28;20031;-73
2023/09/16 01:50:54;;;;;;;2.80;1.70;;;;;;;26.15;52.20;98694.47;4977062;28;20031;-73
2023/09/16 01:53:19;;;;;;;2.85;1.50;;;;;;;26.14;52.39;98692.75;4976871;28;20440;-74
2023/09/16 01:55:45;;;;;;;2.05;1.40;;;;;;;26.12;52.21;98689.41;4988997;28;20061;-73
2023/09/16 01:58:11;;;;;;;4.20;1.80;;;;;;;26.12;52.29;98689.41;4984036;28;20023;-73
2023/09/16 02:00:39;;;;;;;2.60;1.52;;;;;;;26.12;52.42;98684.06;4976701;28;20054;-74
2023/09/16 02:03:05;;;;;;;1.65;1.23;;;;;;;26.11;52.14;98687.72;4976918;28;20098;-74
2023/09/16 02:05:30;;;;;;;4.15;1.70;;;;;;;26.12;52.53;98684.06;5005855;28;20136;-73
2023/09/16 02:07:57;;;;;;;2.50;1.70;;;;;;;26.10;52.56;98686.03;5015610;28;20104;-73
2023/09/16 02:10:23;;;;;;;3.40;1.77;;;;;;;26.09;52.55;98677.16;5015759;28;20037;-74
2023/09/16 02:12:48;;;;;;;2.90;1.70;;;;;;;26.08;52.35;98677.31;5015574;28;20018;-73
2023/09/16 02:15:14;;;;;;;3.15;1.80;;;;;;;26.08;52.51;98677.31;4999304;28;20019;-73
2023/09/16 02:17:39;;;;;;;3.38;1.63;;;;;;;26.09;52.24;98673.63;4994588;28;20026;-73
2023/09/16 02:20:09;;;;;;;2.63;1.75;;;;;;;26.08;52.40;98671.97;4995763;28;20441;-73
2023/09/16 02:22:35;;;;;;;2.97;1.65;;;;;;;26.09;52.12;98674.50;4995874;28;20161;-73
2023/09/16 02:25:00;;;;;;;3.08;1.70;;;;;;;26.10;52.18;98659.31;4995867;28;20531;-73
2023/09/16 02:27:26;;;;;;;2.58;1.30;;;;;;;26.07;52.64;98664.94;4995898;28;20104;-74
2023/09/16 02:29:51;;;;;;;2.88;1.60;;;;;;;26.09;52.49;98668.28;4995795;28;20061;-73
2023/09/16 02:32:17;;;;;;;3.35;1.77;;;;;;;26.06;52.38;98666.78;4995287;28;20030;-73
2023/09/16 02:34:42;;;;;;;2.33;1.38;;;;;;;26.05;52.38;98665.06;4994471;28;20108;-74
2023/09/16 02:37:08;;;;;;;2.60;1.65;;;;;;;26.06;52.57;98673.94;4995368;28;20045;-72
2023/09/16 02:39:33;;;;;;;2.97;1.77;;;;;;;26.05;52.44;98689.13;4995450;28;20479;-73
2023/09/16 02:41:59;;;;;;;3.65;1.70;;;;;;;26.04;52.40;98690.13;4995701;28;20030;-73
2023/09/16 02:44:24;;;;;;;2.58;1.63;;;;;;;26.04;52.68;98686.63;4995558;28;20179;-72
2023/09/16 02:46:50;;;;;;;3.17;1.45;;;;;;;26.04;52.74;98702.66;4995549;28;20100;-73
2023/09/16 02:49:15;;;;;;;3.35;1.60;;;;;;;26.01;52.79;98699.28;4995486;28;20121;-73
2023/09/16 02:51:40;;;;;;;2.80;1.67;;;;;;;26.01;52.47;98704.63;4995033;28;20038;-73
2023/09/16 02:54:06;;;;;;;2.13;1.50;;;;;;;26.01;52.52;98703.81;4993869;28;20085;-73
2023/09/16 02:56:32;;;;;;;3.38;1.67;;;;;;;26.00;52.67;98718.13;4995494;28;20105;-73
2023/09/16 02:58:57;;;;;;;2.50;1.60;;;;;;;25.98;53.00;98715.63;4995259;28;20479;-73
2023/09/16 03:01:23;;;;;;;3.50;1.85;;;;;;;25.99;52.49;98716.44;4995289;28;20033;-73
2023/09/16 03:03:48;;;;;;;2.53;1.52;;;;;;;25.98;52.49;98710.28;4994723;28;20526;-74
2023/09/16 03:06:14;;;;;;;2.47;1.52;;;;;;;25.98;52.67;98709.41;4993533;28;20059;-73
2023/09/16 03:08:39;;;;;;;2.75;1.63;;;;;;;25.98;52.75;98718.28;4993630;28;20368;-73
2023/09/16 03:11:06;;;;;;;2.72;1.55;;;;;;;25.99;52.87;98727.13;4994861;28;20026;-73
2023/09/16 03:13:31;;;;;;;2.50;1.55;;;;;;;25.96;52.77;98725.59;4993681;28;20363;-73
2023/09/16 03:16:17;;;;;;;3.03;1.60;;;;;;;25.97;52.58;98734.47;4994814;28;20013;-73
2023/09/16 03:18:46;;;;;;;4.10;1.60;;;;;;;25.96;52.63;98725.59;4995146;28;20045;-73
2023/09/16 03:21:14;;;;;;;2.80;1.67;;;;;;;25.96;52.55;98735.47;4994598;28;20054;-73
2023/09/16 03:23:40;;;;;;;3.30;1.40;;;;;;;25.95;52.75;98721.25;4994804;28;20034;-74
2023/09/16 03:26:06;;;;;;;2.70;1.75;;;;;;;25.94;52.83;98719.56;4994678;28;20027;-73
2023/09/16 03:28:31;;;;;;;3.38;1.55;;;;;;;25.93;52.79;98709.88;4994636;28;20030;-73
2023/09/16 03:30:56;;;;;;;2.53;1.63;;;;;;;25.95;53.00;98704.38;4994485;28;20088;-73
2023/09/16 03:33:22;;;;;;;3.60;1.60;;;;;;;25.92;52.73;98705.50;4994691;28;20072;-74
2023/09/16 03:35:47;;;;;;;3.85;1.52;;;;;;;25.93;52.64;98699.16;4994417;28;20026;-73
2023/09/16 03:38:13;;;;;;;4.00;1.80;;;;;;;25.91;52.96;98701.13;4994619;28;20030;-73
2023/09/16 03:40:38;;;;;;;3.08;1.58;;;;;;;25.91;52.78;98702.97;4981765;28;20514;-73
2023/09/16 03:43:04;;;;;;;3.28;1.65;;;;;;;25.90;52.77;98691.44;4975223;28;20058;-73
2023/09/16 03:45:29;;;;;;;3.80;2.00;;;;;;;25.91;52.77;98690.44;4975003;28;20105;-73
2023/09/16 03:47:55;;;;;;;3.63;1.70;;;;;;;25.90;53.09;98688.75;4973805;28;20030;-72
2023/09/16 03:50:20;;;;;;;2.58;1.50;;;;;;;25.89;53.10;98689.75;4974495;28;20034;-73
2023/09/16 03:52:47;;;;;;;4.85;2.10;;;;;;;25.89;52.75;98683.59;4983534;28;20490;-73
2023/09/16 03:55:13;;;;;;;3.42;1.80;;;;;;;25.89;52.83;98697.78;4992959;28;20037;-73
2023/09/16 03:57:38;;;;;;;4.45;1.80;;;;;;;25.87;53.10;98691.72;4994147;28;20023;-73
2023/09/16 04:00:07;;;;;;;4.30;1.70;;;;;;;25.89;53.00;98689.75;4993910;28;20513;-72
2023/09/16 04:02:32;;;;;;;4.18;1.85;;;;;;;25.87;53.13;98686.38;4994220;28;20030;-73
2023/09/16 04:04:58;;;;;;;2.53;1.45;;;;;;;25.88;52.97;98688.06;5000031;28;20045;-73
2023/09/16 04:07:23;;;;;;;3.92;1.77;;;;;;;25.87;52.69;98695.22;5013541;28;20030;-74
2023/09/16 04:09:49;;;;;;;5.00;2.03;;;;;;;25.87;52.86;98691.72;5008267;28;20023;-73
2023/09/16 04:12:15;;;;;;;3.85;1.80;;;;;;;25.86;52.98;98685.53;4993852;28;20463;-73
2023/09/16 04:14:40;;;;;;;3.33;1.50;;;;;;;25.86;52.93;98696.22;4993926;28;20030;-73
2023/09/16 04:17:06;;;;;;;3.33;1.70;;;;;;;25.88;53.10;98688.06;4993869;28;20029;-73
2023/09/16 04:19:31;;;;;;;3.63;1.95;;;;;;;25.86;52.87;98690.06;4993011;28;20030;-73
2023/09/16 04:21:57;;;;;;;2.45;1.60;;;;;;;25.86;52.58;98695.41;4992598;28;20022;-73
2023/09/16 04:24:22;;;;;;;3.28;1.77;;;;;;;25.86;53.01;98701.56;4993668;28;20023;-73
2023/09/16 04:26:47;;;;;;;2.65;1.60;;;;;;;25.84;53.03;98694.69;4992258;28;20121;-73
2023/09/16 04:29:13;;;;;;;3.15;1.75;;;;;;;25.83;53.09;98698.34;4993435;28;20030;-73
2023/09/16 04:31:38;;;;;;;3.45;1.63;;;;;;;25.84;52.88;98692.00;4993612;28;20022;-73
2023/09/16 04:34:04;;;;;;;2.78;1.58;;;;;;;25.85;52.73;98696.38;4991921;28;20050;-73
2023/09/16 04:36:29;;;;;;;3.40;1.70;;;;;;;25.86;52.61;98698.06;4993222;28;20030;-73
2023/09/16 04:38:55;;;;;;;3.63;1.60;;;;;;;25.85;52.70;98704.38;4993373;28;20030;-73
2023/09/16 04:41:21;;;;;;;3.50;1.92;;;;;;;25.83;52.78;98701.88;4993423;28;20092;-73
2023/09/16 04:43:49;;;;;;;3.92;1.98;;;;;;;25.82;52.98;98704.69;4993333;28;20029;-74
2023/09/16 04:46:18;;;;;;;2.80;1.52;;;;;;;25.81;52.79;98703.00;4993048;28;20037;-73
2023/09/16 04:48:44;;;;;;;4.45;1.73;;;;;;;25.79;52.80;98694.25;4992887;28;20022;-74
2023/09/16 04:51:10;;;;;;;2.85;1.73;;;;;;;25.79;52.61;98686.25;4993149;28;20451;-73
2023/09/16 04:53:35;;;;;;;2.78;1.63;;;;;;;25.79;52.85;98684.44;4993179;28;20034;-73
2023/09/16 04:56:02;;;;;;;2.92;1.40;;;;;;;25.79;53.13;98676.41;4993041;28;20037;-73
2023/09/16 04:58:27;;;;;;;3.55;1.98;;;;;;;25.82;52.66;98677.97;4993176;28;20054;-73
2023/09/16 05:00:53;;;;;;;2.92;1.60;;;;;;;25.80;52.72;98669.25;4992714;28;20494;-73
2023/09/16 05:03:19;;;;;;;3.17;1.70;;;;;;;25.79;52.75;98679.09;4992950;28;20482;-73
2023/09/16 05:05:47;;;;;;;3.63;1.90;;;;;;;25.79;53.09;98683.56;5001379;28;20034;-73
2023/09/16 05:08:13;;;;;;;4.32;1.70;;;;;;;25.79;52.71;98678.22;4992728;28;20394;-73
2023/09/16 05:10:38;;;;;;;3.63;1.73;;;;;;;25.80;53.09;98685.28;4993218;28;20026;-73
2023/09/16 05:13:04;;;;;;;3.47;1.80;;;;;;;25.80;52.73;98683.44;4992173;28;20022;-73
2023/09/16 05:15:29;;;;;;;2.92;1.60;;;;;;;25.76;53.11;98676.69;4991025;28;20118;-74
2023/09/16 05:17:54;;;;;;;3.55;1.50;;;;;;;25.77;53.07;98674.88;4992278;28;20097;-73
2023/09/16 05:20:20;;;;;;;3.15;1.55;;;;;;;25.77;52.97;98669.53;4992887;28;20101;-72
2023/09/16 05:22:47;;;;;;;3.83;1.60;;;;;;;25.74;53.14;98676.84;4992699;28;20023;-73
2023/09/16 05:25:12;;;;;;;2.53;1.50;;;;;;;25.73;53.19;98674.31;4992834;28;20034;-73
2023/09/16 05:27:38;;;;;;;3.50;1.60;;;;;;;25.72;53.29;98673.47;4989556;28;20092;-74
2023/09/16 05:30:04;;;;;;;5.35;2.03;;;;;;;25.73;52.99;98680.50;4992505;28;20065;-73
2023/09/16 05:32:29;;;;;;;3.22;1.58;;;;;;;25.73;53.18;98672.47;4992231;28;20590;-73
2023/09/16 05:34:55;;;;;;;3.60;1.42;;;;;;;25.74;52.82;98682.19;4992679;28;20037;-73
2023/09/16 05:37:20;;;;;;;3.58;1.73;;;;;;;25.74;52.77;98682.19;4977212;28;20019;-74
2023/09/16 05:39:46;;;;;;;3.50;1.77;;;;;;;25.75;52.69;98688.38;4973187;28;20030;-74
2023/09/16 05:42:11;;;;;;;2.50;1.42;;;;;;;25.76;52.67;98699.91;4973255;28;20392;-74
2023/09/16 05:44:36;;;;;;;3.35;1.70;;;;;;;25.75;52.80;98701.72;4983708;28;20412;-73
2023/09/16 05:47:02;;;;;;;3.13;1.55;;;;;;;25.74;52.99;98703.56;4992237;28;20025;-74
2023/09/16 05:49:28;;;;;;;3.45;1.67;;;;;;;25.74;52.96;98703.56;4992436;28;20081;-73
2023/09/16 05:51:53;;;;;;;4.75;2.10;;;;;;;25.76;52.88;98705.25;4992723;28;20036;-74
2023/09/16 05:54:19;;;;;;;4.00;1.88;;;;;;;25.73;52.78;98707.22;4992665;28;20030;-72
2023/09/16 05:56:46;;;;;;;3.55;1.80;;;;;;;25.72;52.81;98710.88;4992579;28;20050;-74
2023/09/16 05:59:13;;;;;;;3.28;1.50;;;;;;;25.73;52.88;98707.22;4992064;28;20084;-74
2023/09/16 06:01:39;;;;;;;3.35;1.40;;;;;;;25.72;52.77;98710.88;4992519;28;20037;-74
2023/09/16 06:04:04;;;;;;;5.45;1.80;;;;;;;25.72;52.84;98710.88;4981949;28;20047;-73
2023/09/16 06:06:30;;;;;;;4.65;1.88;;;;;;;25.71;52.98;98714.53;5011447;28;20557;-73
2023/09/16 06:08:56;;;;;;;3.22;1.63;;;;;;;25.70;53.06;98712.00;5012002;28;20483;-73
2023/09/16 06:11:26;;;;;;;3.55;1.30;;;;;;;25.70;53.10;98720.88;5012037;28;20052;-72
2023/09/16 06:13:53;;;;;;;3.67;1.40;;;;;;;25.69;53.14;98724.53;5011709;28;20465;-73
2023/09/16 06:16:18;;;;;;;4.28;1.73;;;;;;;25.71;53.10;98724.41;5012029;28;20034;-73
2023/09/16 06:18:44;;;;;;;5.15;1.70;;;;;;;25.69;53.11;98716.53;5011727;28;20512;-73
2023/09/16 06:21:09;;;;;;;2.80;1.40;;;;;;;25.68;52.72;98717.50;5011913;28;20033;-73
2023/09/16 06:23:35;;;;;;;4.35;1.60;;;;;;;25.69;52.96;98721.00;5011928;28;20076;-73
2023/09/16 06:26:00;;;;;;;3.30;1.60;;;;;;;25.72;53.07;98731.44;5010531;28;20029;-73
2023/09/16 06:28:26;;;;;;;4.55;1.85;;;;;;;25.70;53.10;98726.22;5002386;28;20529;-73
2023/09/16 06:30:51;;;;;;;4.75;1.70;;;;;;;25.70;52.93;98723.53;4995679;28;20436;-73
2023/09/16 06:33:17;;;;;;;4.18;1.73;;;;;;;25.66;53.17;98724.81;4995237;28;20069;-73
2023/09/16 06:35:42;;;;;;;3.28;1.63;;;;;;;25.64;53.38;98724.13;4995478;28;20038;-73
2023/09/16 06:38:07;;;;;;;4.00;1.70;;;;;;;25.64;53.24;98729.47;4994317;28;20048;-73
2023/09/16 06:40:33;;;;;;;3.55;1.63;;;;;;;25.65;53.25;98731.13;4995651;28;20031;-73
2023/09/16 06:42:58;;;;;;;4.03;1.67;;;;;;;25.66;53.24;98740.84;4995432;28;20525;-73
2023/09/16 06:45:24;;;;;;;4.85;1.63;;;;;;;25.66;53.51;98738.16;4995405;28;20030;-73
2023/09/16 06:47:49;;;;;;;5.03;2.00;;;;;;;25.64;53.53;98733.94;4995506;28;20125;-73
2023/09/16 06:50:14;;;;;;;4.22;1.60;;;;;;;25.64;53.59;98733.94;4995238;28;20031;-73
2023/09/16 06:52:40;;;;;;;3.85;1.48;;;;;;;25.70;53.47;98739.56;4995352;28;20402;-73
2023/09/16 06:55:05;;;;;;;2.47;1.33;;;;;;;25.66;53.30;98740.84;4995379;28;20022;-73
2023/09/16 06:57:31;;;;;;;3.85;1.50;;;;;;;25.71;53.66;98733.25;4994835;28;20082;-74
2023/09/16 06:59:57;;;;;;;4.43;1.70;;;;;;;25.71;53.34;98735.91;4994266;28;20030;-74
2023/09/16 07:02:22;;;;;;;3.80;1.77;;;;;;;25.70;53.47;98739.56;4995144;28;20113;-73
2023/09/16 07:04:49;;;;;;;2.90;1.55;;;;;;;25.71;53.24;98751.13;5000588;28;20133;-74
2023/09/16 07:07:14;;;;;;;4.10;1.67;;;;;;;25.69;53.54;98763.75;5014918;28;20040;-74
2023/09/16 07:09:40;;;;;;;3.83;1.40;;;;;;;25.70;53.27;98755.59;5003893;28;20390;-74
2023/09/16 07:12:06;;;;;;;4.25;1.45;;;;;;;25.66;53.52;98759.53;4993121;28;20512;-74
2023/09/16 07:14:32;;;;;;;2.67;1.45;;;;;;;25.68;53.57;98770.94;4995163;28;20419;-74
2023/09/16 07:16:57;;;;;;;2.78;1.30;;;;;;;25.69;53.21;98766.44;4994888;28;20037;-73
2023/09/16 07:19:23;;;;;;;3.17;1.50;;;;;;;25.69;53.33;98759.25;4985203;28;20062;-73
2023/09/16 07:21:48;;;;;;;3.67;1.70;;;;;;;25.69;53.35;98753.94;4975494;28;20030;-73
2023/09/16 07:24:14;;;;;;;3.58;1.60;;;;;;;25.72;53.11;98760.81;4975426;28;20059;-73
2023/09/16 07:26:42;;;;;;;4.05;1.80;;;;;;;25.72;53.47;98766.16;4973751;28;20467;-73
2023/09/16 07:29:08;;;;;;;5.32;1.60;;;;;;;25.72;53.34;98772.31;4981169;28;20483;-74
2023/09/16 07:31:33;;;;;;;5.35;1.75;;;;;;;25.72;53.09;98775.00;4994657;28;20029;-73
2023/09/16 07:33:59;;;;;;;4.05;1.48;;;;;;;25.70;53.16;98781.47;4994688;28;20069;-74
2023/09/16 07:36:24;;;;;;;2.92;1.35;;;;;;;25.75;52.76;98792.56;4994626;28;20115;-73
2023/09/16 07:38:49;;;;;;;3.83;1.45;;;;;;;25.74;52.79;98799.78;4990669;28;20446;-73
2023/09/16 07:41:15;;;;;;;3.50;1.50;;;;;;;25.74;53.00;98794.44;4974520;28;20031;-73
2023/09/16 07:43:40;;;;;;;3.60;1.50;;;;;;;25.74;53.01;98799.78;4973751;28;21093;-73
2023/09/16 07:46:05;;;;;;;3.45;1.80;;;;;;;25.77;52.78;98792.44;4975097;28;20030;-73
2023/09/16 07:48:31;;;;;;;3.50;1.50;;;;;;;25.76;52.87;98796.94;4975809;28;20109;-73
2023/09/16 07:50:57;;;;;;;4.28;1.70;;;;;;;25.77;52.75;98805.81;4994330;28;20030;-74
2023/09/16 07:53:23;;;;;;;2.88;1.45;;;;;;;25.79;52.68;98802.00;4994347;28;20026;-74
2023/09/16 07:55:48;;;;;;;5.50;1.92;;;;;;;25.79;53.03;98796.66;4991600;28;20125;-73
2023/09/16 07:58:13;;;;;;;1.95;1.30;;;;;;;25.82;52.63;98784.84;4983062;28;20038;-74
2023/09/16 08:00:39;;;;;;;3.90;1.50;;;;;;;25.87;52.61;98787.94;4981387;28;20118;-74
2023/09/16 08:03:04;;;;;;;4.90;1.50;;;;;;;25.93;52.88;98784.69;4974692;28;20105;-73
2023/09/16 08:05:30;;;;;;;3.65;1.60;;;;;;;25.93;52.31;98786.50;4989681;28;20050;-73
2023/09/16 08:07:55;;;;;;;4.68;1.67;;;;;;;25.93;52.49;98782.03;4993871;28;20027;-73
2023/09/16 08:10:20;;;;;;;4.25;1.80;;;;;;;25.93;52.47;98791.88;4989619;28;20025;-73
2023/09/16 08:12:46;;;;;;;3.15;1.52;;;;;;;25.94;52.59;98798.88;4995171;28;20022;-73
2023/09/16 08:15:11;;;;;;;2.92;1.30;;;;;;;25.93;52.53;98808.75;4992173;28;20034;-74
2023/09/16 08:17:39;;;;;;;3.65;1.40;;;;;;;25.91;52.77;98810.72;4988986;28;20056;-72
2023/09/16 08:20:06;;;;;;;2.90;1.77;;;;;;;25.93;52.54;98803.41;5003394;28;20030;-72
2023/09/16 08:22:32;;;;;;;3.92;1.70;;;;;;;25.96;52.46;98802.28;4987746;28;20080;-72
2023/09/16 08:24:57;;;;;;;3.15;1.65;;;;;;;25.97;52.42;98804.81;4988200;28;20027;-73
2023/09/16 08:27:22;;;;;;;3.90;1.60;;;;;;;25.98;52.78;98800.31;4992719;28;20040;-72
2023/09/16 08:29:49;;;;;;;3.50;1.30;;;;;;;26.03;52.57;98803.41;4989721;28;20049;-72
2023/09/16 08:32:15;;;;;;;4.22;1.40;;;;;;;26.03;52.27;98790.03;4986029;28;20061;-72
2023/09/16 08:34:41;;;;;;;2.50;1.40;;;;;;;26.04;52.21;98799.72;4983850;28;20054;-73
2023/09/16 08:37:06;;;;;;;3.10;1.77;;;;;;;26.04;52.30;98794.38;4989876;28;20026;-71
2023/09/16 08:39:32;;;;;;;3.75;1.77;;;;;;;26.08;52.74;98800.28;4991907;28;20030;-71
2023/09/16 08:42:35;;;;;;;3.28;1.55;;;;;;;26.09;52.56;98797.47;4991030;28;20029;-73
2023/09/16 08:45:04;;;;;;;4.20;1.88;;;;;;;26.11;52.50;98798.16;4985336;28;20498;-73
2023/09/16 08:47:35;;;;;;;3.92;1.90;;;;;;;26.13;52.39;98798.03;4985480;28;20470;-75
2023/09/16 08:50:06;;;;;;;3.75;1.80;;;;;;;26.13;52.63;98806.91;4990672;28;20038;-73
2023/09/16 08:52:53;;;;;;;4.03;2.00;;;;;;;26.14;52.53;98794.34;4990517;28;20030;-71
2023/09/16 08:55:19;;;;;;;6.28;2.00;;;;;;;26.15;52.51;98798.75;4991006;28;20074;-72
2023/09/16 08:57:52;;;;;;;4.10;1.92;;;;;;;26.15;52.21;98796.06;4990053;28;20030;-72
2023/09/16 09:00:19;;;;;;;5.20;2.25;;;;;;;26.17;52.58;98802.09;4986960;28;20053;-72
2023/09/16 09:02:45;;;;;;;5.38;1.92;;;;;;;26.17;52.35;98810.13;4992524;28;20097;-71
2023/09/16 09:05:11;;;;;;;3.28;1.55;;;;;;;26.18;52.53;98805.59;4988906;28;20100;-72
2023/09/16 09:07:39;;;;;;;5.53;1.77;;;;;;;26.18;52.56;98801.13;4991859;28;20030;-72
2023/09/16 09:10:06;;;;;;;3.42;1.77;;;;;;;26.18;52.37;98801.13;4988430;28;20023;-72
2023/09/16 09:12:36;;;;;;;3.88;1.73;;;;;;;26.19;52.41;98797.44;4992047;28;20029;-73
2023/09/16 09:15:06;;;;;;;3.72;1.70;;;;;;;26.19;52.74;98805.47;4989364;28;20509;-72
2023/09/16 09:17:37;;;;;;;6.70;2.10;;;;;;;26.19;52.41;98807.31;4988199;28;20030;-73
2023/09/16 09:20:06;;;;;;;4.32;1.98;;;;;;;26.20;52.35;98815.16;4988309;28;20042;-71
2023/09/16 09:22:36;;;;;;;3.60;1.83;;;;;;;26.20;52.95;98809.81;4985502;28;20049;-74
2023/09/16 09:25:02;;;;;;;5.28;1.85;;;;;;;26.23;52.69;98811.41;4986296;28;20042;-72
2023/09/16 09:27:28;;;;;;;4.60;1.65;;;;;;;26.24;52.27;98824.63;4991504;28;20125;-72
2023/09/16 09:29:54;;;;;;;4.68;1.92;;;;;;;26.24;52.34;98816.63;4989955;28;20023;-73
2023/09/16 09:32:21;;;;;;;3.58;1.60;;;;;;;26.26;52.69;98814.63;4991197;28;20022;-73
2023/09/16 09:34:46;;;;;;;5.40;1.70;;;;;;;26.25;52.44;98807.59;4987695;28;20040;-72
2023/09/16 09:37:18;;;;;;;4.90;1.70;;;;;;;26.25;52.77;98802.25;4972447;28;20022;-72
2023/09/16 09:39:45;;;;;;;7.82;2.03;;;;;;;26.27;52.45;98802.97;4978781;28;20557;-73
2023/09/16 09:42:18;;;;;;;6.35;1.63;;;;;;;26.30;52.87;98801.84;4978357;28;20038;-73
2023/09/16 09:44:43;;;;;;;5.78;1.80;;;;;;;26.32;52.47;98805.19;4975891;28;20527;-73
2023/09/16 09:47:12;;;;;;;5.07;1.83;;;;;;;26.33;52.54;98808.72;4991737;28;20018;-73
2023/09/16 09:49:37;;;;;;;4.75;1.73;;;;;;;26.34;52.54;98794.38;4980476;28;20026;-73
2023/09/16 09:52:04;;;;;;;5.88;1.90;;;;;;;26.37;52.24;98810.09;4991477;28;20363;-73
2023/09/16 09:54:30;;;;;;;7.05;2.10;;;;;;;26.38;52.31;98806.44;4992012;28;20030;-73
2023/09/16 09:56:56;;;;;;;5.95;1.77;;;;;;;26.40;52.58;98809.84;4991246;28;20023;-72
2023/09/16 09:59:22;;;;;;;9.35;2.60;;;;;;;26.44;53.03;98795.16;4990693;28;20026;-73
2023/09/16 10:01:47;;;;;;;10.20;2.60;;;;;;;26.48;52.87;98793.88;4987703;28;20022;-72
2023/09/16 10:04:13;;;;;;;10.70;3.08;;;;;;;26.49;53.22;98795.56;4991080;28;20392;-73
2023/09/16 10:06:39;;;;;;;10.30;2.90;;;;;;;26.51;53.93;98792.75;4994666;28;20030;-73
2023/09/16 10:09:04;;;;;;;9.07;2.60;;;;;;;26.54;53.50;98787.13;4995422;28;20022;-73
2023/09/16 10:11:32;;;;;;;11.50;2.83;;;;;;;26.54;53.24;98785.28;4995355;28;20030;-73
2023/09/16 10:13:59;;;;;;;9.52;2.55;;;;;;;26.57;53.04;98775.28;4984424;28;20031;-72
2023/09/16 10:16:25;;;;;;;8.90;1.85;;;;;;;26.60;53.10;98785.69;4977191;28;20023;-72
2023/09/16 10:18:51;;;;;;;7.00;2.50;;;;;;;26.62;53.29;98786.38;4992797;28;20080;-72
2023/09/16 10:21:18;;;;;;;4.93;2.10;;;;;;;26.61;52.76;98792.72;4983738;28;20399;-72
2023/09/16 10:23:46;;;;;;;6.45;2.05;;;;;;;26.64;52.50;98795.09;4985646;28;20026;-73
2023/09/16 10:26:11;;;;;;;12.93;2.70;;;;;;;26.64;52.53;98779.06;4988151;28;20037;-73
2023/09/16 10:28:46;;;;;;;6.38;2.00;;;;;;;26.66;52.31;98774.38;4989992;28;20034;-73
2023/09/16 10:31:12;;;;;;;6.15;2.25;;;;;;;26.67;52.38;98768.91;4980663;28;20440;-73
2023/09/16 10:33:41;;;;;;;4.95;1.80;;;;;;;26.70;52.67;98777.59;4974245;28;20125;-73
2023/09/16 10:36:08;;;;;;;4.95;1.98;;;;;;;26.71;52.41;98780.13;4975338;28;20038;-73
2023/09/16 10:38:36;;;;;;;11.13;2.25;;;;;;;26.72;51.83;98776.47;4990418;28;20038;-72
2023/09/16 10:41:05;;;;;;;5.63;2.08;;;;;;;26.74;51.85;98766.47;4976547;28;20519;-73
2023/09/16 10:43:31;;;;;;;6.00;1.90;;;;;;;26.75;51.95;98762.81;4975741;28;20031;-73
2023/09/16 10:45:57;;;;;;;8.00;1.90;;;;;;;26.77;51.90;98768.00;4975591;28;20061;-73
2023/09/16 10:48:23;;;;;;;6.20;1.90;;;;;;;26.76;51.80;98767.16;4986838;28;20026;-73
2023/09/16 10:50:52;;;;;;;7.80;2.30;;;;;;;26.77;52.20;98782.22;4993133;28;20609;-73
2023/09/16 10:53:29;;;;;;;6.50;2.35;;;;;;;26.77;51.95;98776.88;4994677;28;20368;-73
2023/09/16 10:56:03;;;;;;;5.07;2.10;;;;;;;26.78;52.29;98770.53;4994991;28;20041;-72
2023/09/16 10:58:50;;;;;;;6.32;1.80;;;;;;;26.79;51.69;98772.19;4995235;28;20022;-73
2023/09/16 11:01:34;;;;;;;6.25;2.05;;;;;;;26.81;51.91;98774.72;4994788;28;20023;-72
2023/09/16 11:04:17;;;;;;;5.38;2.20;;;;;;;26.81;52.18;98775.59;4987853;28;20038;-73
2023/09/16 11:06:43;;;;;;;5.45;2.20;;;;;;;26.84;51.60;98773.59;4975670;28;20031;-73
2023/09/16 11:09:09;;;;;;;7.68;2.22;;;;;;;26.85;51.86;98759.22;4990971;28;20104;-73
2023/09/16 11:11:36;;;;;;;8.30;2.20;;;;;;;26.87;51.83;98776.00;4994246;28;20114;-73
2023/09/16 11:14:03;;;;;;;5.75;2.42;;;;;;;26.89;51.85;98768.66;4993581;28;20031;-73
2023/09/16 11:16:28;;;;;;;9.48;2.42;;;;;;;26.88;51.44;98766.97;4990743;28;20038;-73
2023/09/16 11:18:55;;;;;;;6.38;2.08;;;;;;;26.89;51.69;98776.69;4992761;28;20026;-73
2023/09/16 11:21:21;;;;;;;4.53;1.98;;;;;;;26.88;52.05;98765.13;4994289;28;20066;-73
2023/09/16 11:23:48;;;;;;;7.43;2.10;;;;;;;26.87;52.03;98768.78;4994211;28;20053;-72
2023/09/16 11:26:18;;;;;;;7.55;2.50;;;;;;;26.90;52.08;98756.94;4994541;28;20105;-73
2023/09/16 11:28:44;;;;;;;5.35;2.03;;;;;;;26.92;52.03;98763.03;4994612;28;20403;-73
2023/09/16 11:31:09;;;;;;;8.68;2.30;;;;;;;26.92;51.81;98757.69;4975884;28;20023;-72